createdAt,value
2018-08-11T00:01:50.923Z,75.22
2018-08-11T00:04:19.782Z,75.36
2018-08-11T00:06:48.720Z,75.31
2018-08-11T00:09:17.549Z,75.83
2018-08-11T00:11:46.386Z,75.16
2018-08-11T00:14:15.251Z,74.49
2018-08-11T00:16:44.115Z,75.02
2018-08-11T00:19:12.979Z,73.88
2018-08-11T00:21:44.914Z,75.10
2018-08-11T00:24:13.757Z,74.52
2018-08-11T00:26:42.626Z,74.49
2018-08-11T00:29:11.486Z,72.80
2018-08-11T00:31:40.350Z,73.97
2018-08-11T00:34:09.198Z,74.59
2018-08-11T00:36:38.035Z,75.63
2018-08-11T00:39:09.202Z,75.52
2018-08-11T00:41:38.046Z,75.91
2018-08-11T00:44:07.406Z,75.98
2018-08-11T00:46:36.385Z,75.59
2018-08-11T00:49:05.277Z,75.25
2018-08-11T00:51:34.165Z,75.68
2018-08-11T00:54:03.032Z,75.58
2018-08-11T00:56:31.887Z,75.14
2018-08-11T00:59:00.709Z,75.75
2018-08-11T01:01:29.551Z,76.40
2018-08-11T01:03:58.398Z,76.79
2018-08-11T01:06:27.244Z,76.72
2018-08-11T01:08:56.084Z,77.25
2018-08-11T01:11:24.949Z,76.80
2018-08-11T01:13:53.808Z,76.87
2018-08-11T01:16:22.660Z,76.97
2018-08-11T01:18:51.674Z,76.34
2018-08-11T01:21:20.524Z,76.28
2018-08-11T01:23:49.403Z,76.06
2018-08-11T01:27:12.929Z,76.45
2018-08-11T01:29:41.764Z,75.01
2018-08-11T01:32:10.653Z,76.17
2018-08-11T01:34:39.478Z,76.44
2018-08-11T01:37:08.351Z,76.79
2018-08-11T01:39:37.190Z,77.59
2018-08-11T01:42:06.037Z,77.21
2018-08-11T01:44:34.910Z,77.67
2018-08-11T01:47:03.787Z,78.20
2018-08-11T01:49:38.719Z,78.34
2018-08-11T01:52:07.551Z,78.45
2018-08-11T01:54:36.414Z,78.58
2018-08-11T01:57:05.231Z,78.71
2018-08-11T01:59:34.193Z,78.03
2018-08-11T02:02:03.047Z,79.19
2018-08-11T02:04:31.893Z,78.15
2018-08-11T02:07:00.895Z,79.46
2018-08-11T02:09:29.754Z,77.90
2018-08-11T02:11:58.659Z,79.22
2018-08-11T02:14:27.792Z,78.87
2018-08-11T02:16:56.659Z,79.53
2018-08-11T02:19:25.522Z,79.68
2018-08-11T02:21:54.371Z,80.04
2018-08-11T02:24:23.239Z,80.07
2018-08-11T02:26:52.225Z,80.33
2018-08-11T02:29:21.084Z,80.96
2018-08-11T02:31:49.973Z,81.39
2018-08-11T02:34:23.509Z,81.57
2018-08-11T02:36:52.319Z,82.24
2018-08-11T02:39:21.161Z,82.48
2018-08-11T02:41:50.018Z,82.96
2018-08-11T02:44:18.872Z,82.73
2018-08-11T02:46:47.726Z,83.25
2018-08-11T02:49:16.601Z,83.76
2018-08-11T02:51:45.420Z,82.02
2018-08-11T02:54:14.262Z,83.27
2018-08-11T02:56:43.202Z,83.53
2018-08-11T02:59:12.061Z,83.14
2018-08-11T03:01:40.954Z,83.20
2018-08-11T03:04:09.870Z,83.05
2018-08-11T03:06:38.750Z,83.52
2018-08-11T03:09:08.236Z,83.96
2018-08-11T03:11:37.081Z,83.52
2018-08-11T03:14:06.023Z,83.64
2018-08-11T03:16:34.758Z,83.33
2018-08-11T03:19:03.749Z,83.37
2018-08-11T03:21:32.605Z,83.18
2018-08-11T03:24:01.636Z,83.01
2018-08-11T03:26:30.467Z,83.16
2018-08-11T03:28:59.325Z,83.55
2018-08-11T03:31:28.162Z,83.40
2018-08-11T03:33:57.005Z,83.57
2018-08-11T03:36:25.850Z,83.58
2018-08-11T03:38:54.712Z,83.65
2018-08-11T03:41:23.760Z,82.72
2018-08-11T03:43:52.906Z,83.44
2018-08-11T03:46:21.754Z,83.65
2018-08-11T03:48:50.619Z,84.23
2018-08-11T03:51:19.489Z,84.29
2018-08-11T03:53:48.365Z,84.10
2018-08-11T03:56:17.201Z,84.59
2018-08-11T03:58:46.054Z,84.30
2018-08-11T04:01:14.967Z,84.14
2018-08-11T04:03:46.720Z,83.31
2018-08-11T04:06:15.554Z,84.52
2018-08-11T04:08:44.553Z,83.17
2018-08-11T04:11:13.396Z,84.15
2018-08-11T04:13:42.261Z,84.25
2018-08-11T04:16:11.137Z,84.31
2018-08-11T04:18:39.996Z,84.29
2018-08-11T04:21:08.888Z,84.16
2018-08-11T04:23:37.735Z,84.22
2018-08-11T04:26:12.502Z,83.98
2018-08-11T04:28:41.367Z,84.05
2018-08-11T04:31:10.272Z,84.14
2018-08-11T04:33:39.120Z,82.71
2018-08-11T04:36:07.974Z,82.13
2018-08-11T04:38:36.835Z,83.31
2018-08-11T04:41:05.659Z,83.72
2018-08-11T04:43:34.501Z,83.29
2018-08-11T04:46:03.367Z,83.17
2018-08-11T04:48:32.446Z,83.17
2018-08-11T04:51:01.295Z,83.05
2018-08-11T04:53:30.177Z,83.16
2018-08-11T04:55:59.022Z,83.56
2018-08-11T04:58:27.888Z,83.61
2018-08-11T05:00:56.720Z,83.61
2018-08-11T05:03:25.567Z,83.65
2018-08-11T05:05:54.406Z,83.81
2018-08-11T05:08:23.269Z,82.61
2018-08-11T05:10:52.141Z,81.86
2018-08-11T05:13:21.001Z,83.27
2018-08-11T05:15:49.880Z,83.17
2018-08-11T05:18:18.823Z,83.25
2018-08-11T05:20:47.808Z,83.25
2018-08-11T05:23:16.681Z,83.63
2018-08-11T05:25:45.597Z,83.35
2018-08-11T05:28:14.448Z,83.86
2018-08-11T05:30:43.327Z,83.70
2018-08-11T05:33:15.535Z,83.66
2018-08-11T05:35:44.305Z,83.28
2018-08-11T05:38:13.166Z,83.32
2018-08-11T05:40:42.031Z,83.17
2018-08-11T05:43:10.859Z,83.16
2018-08-11T05:45:39.763Z,82.86
2018-08-11T05:48:08.606Z,82.63
2018-08-11T05:50:37.469Z,82.53
2018-08-11T05:53:06.302Z,82.08
2018-08-11T05:55:35.247Z,81.71
2018-08-11T05:58:04.098Z,81.44
2018-08-11T06:00:32.981Z,81.61
2018-08-11T06:03:01.895Z,81.71
2018-08-11T06:05:30.679Z,80.10
2018-08-11T06:07:59.554Z,81.28
2018-08-11T06:10:28.452Z,81.22
2018-08-11T06:12:57.263Z,80.82
2018-08-11T06:15:26.123Z,80.93
2018-08-11T06:17:55.002Z,81.11
2018-08-11T06:20:23.839Z,80.66
2018-08-11T06:22:52.690Z,80.76
2018-08-11T06:25:21.527Z,80.58
2018-08-11T06:27:50.390Z,80.42
2018-08-11T06:30:19.262Z,80.35
2018-08-11T06:32:48.154Z,80.09
2018-08-11T06:35:16.988Z,79.94
2018-08-11T06:37:45.861Z,79.94
2018-08-11T06:40:17.936Z,79.98
2018-08-11T06:42:46.786Z,79.68
2018-08-11T06:45:15.660Z,79.69
2018-08-11T06:47:44.501Z,79.60
2018-08-11T06:50:13.385Z,78.00
2018-08-11T06:52:42.258Z,79.00
2018-08-11T06:55:11.129Z,76.88
2018-08-11T06:57:39.991Z,78.27
2018-08-11T07:00:08.827Z,78.13
2018-08-11T07:02:43.741Z,77.63
2018-08-11T07:05:12.618Z,76.90
2018-08-11T07:07:41.460Z,76.62
2018-08-11T07:10:10.356Z,76.43
2018-08-11T07:12:39.150Z,74.05
2018-08-11T07:15:08.111Z,69.24
2018-08-11T07:17:36.892Z,63.74
2018-08-11T07:20:05.734Z,57.14
2018-08-11T07:22:34.584Z,53.48
2018-08-11T07:25:06.508Z,48.32
2018-08-11T07:27:35.355Z,44.95
2018-08-11T07:30:04.629Z,43.40
2018-08-11T07:32:33.454Z,39.95
2018-08-11T07:35:02.307Z,39.43
2018-08-11T07:37:31.134Z,38.75
2018-08-11T07:39:59.991Z,37.83
2018-08-11T07:42:28.867Z,37.92
2018-08-11T07:44:57.691Z,32.95
2018-08-11T07:47:27.616Z,34.50
2018-08-11T07:49:56.429Z,34.05
2018-08-11T07:52:25.369Z,34.74
2018-08-11T07:54:54.221Z,33.56
2018-08-11T07:57:23.077Z,32.25
2018-08-11T07:59:51.934Z,33.33
2018-08-11T08:02:20.820Z,33.72
2018-08-11T08:04:49.668Z,32.28
2018-08-11T08:07:18.516Z,30.88
2018-08-11T08:09:47.398Z,29.73
2018-08-11T08:12:16.280Z,27.12
2018-08-11T08:14:45.182Z,29.34
2018-08-11T08:17:14.045Z,31.40
2018-08-11T08:19:42.886Z,35.67
2018-08-11T08:22:11.756Z,37.81
2018-08-11T08:24:40.609Z,38.79
2018-08-11T08:27:09.440Z,38.45
2018-08-11T08:29:38.271Z,40.43
2018-08-11T08:32:13.301Z,40.14
2018-08-11T08:34:42.143Z,43.31
2018-08-11T08:37:10.972Z,43.22
2018-08-11T08:39:39.825Z,44.81
2018-08-11T08:42:08.680Z,45.56
2018-08-11T08:44:37.505Z,45.85
2018-08-11T08:47:06.300Z,44.29
2018-08-11T08:49:35.162Z,45.43
2018-08-11T08:52:04.171Z,44.39
2018-08-11T08:54:33.111Z,45.09
2018-08-11T08:57:01.956Z,43.48
2018-08-11T08:59:30.792Z,40.09
2018-08-11T09:01:59.653Z,39.30
2018-08-11T09:04:28.491Z,38.99
2018-08-11T09:06:57.322Z,36.74
2018-08-11T09:09:26.150Z,36.23
2018-08-11T09:11:55.104Z,35.94
2018-08-11T09:14:23.839Z,37.84
2018-08-11T09:16:52.716Z,36.89
2018-08-11T09:19:21.591Z,38.44
2018-08-11T09:21:50.427Z,33.80
2018-08-11T09:24:19.353Z,31.65
2018-08-11T09:26:48.205Z,29.85
2018-08-11T09:29:17.043Z,24.93
2018-08-11T09:31:45.884Z,27.09
2018-08-11T09:34:14.730Z,25.04
2018-08-11T09:36:43.584Z,25.47
2018-08-11T09:39:12.932Z,25.89
2018-08-11T09:41:41.800Z,26.22
2018-08-11T09:44:10.660Z,26.21
2018-08-11T09:46:39.530Z,26.77
2018-08-11T09:49:08.375Z,26.44
2018-08-11T09:51:37.252Z,29.73
2018-08-11T09:54:06.105Z,28.02
2018-08-11T09:56:34.970Z,30.22
2018-08-11T09:59:03.832Z,30.39
2018-08-11T10:02:06.800Z,27.71
2018-08-11T10:04:35.643Z,26.56
2018-08-11T10:07:04.480Z,25.90
2018-08-11T10:09:33.325Z,26.53
2018-08-11T10:12:02.159Z,28.92
2018-08-11T10:14:31.147Z,29.37
2018-08-11T10:16:59.920Z,29.08
2018-08-11T10:19:28.792Z,30.07
2018-08-11T10:21:57.743Z,26.99
2018-08-11T10:24:26.621Z,25.33
2018-08-11T10:26:55.498Z,21.74
2018-08-11T10:29:24.332Z,22.10
2018-08-11T10:31:53.185Z,24.02
2018-08-11T10:34:22.036Z,23.83
2018-08-11T10:36:50.885Z,24.57
2018-08-11T10:39:19.704Z,23.67
2018-08-11T10:41:48.540Z,26.04
2018-08-11T10:44:17.458Z,26.82
2018-08-11T10:46:46.265Z,24.56
2018-08-11T10:49:15.105Z,23.43
2018-08-11T10:51:43.926Z,25.93
2018-08-11T10:54:12.753Z,28.39
2018-08-11T10:56:41.621Z,27.53
2018-08-11T10:59:10.692Z,29.94
2018-08-11T11:01:39.589Z,28.62
2018-08-11T11:04:08.439Z,26.85
2018-08-11T11:06:37.285Z,25.37
2018-08-11T11:09:08.293Z,24.17
2018-08-11T11:11:37.413Z,22.84
2018-08-11T11:14:06.373Z,23.88
2018-08-11T11:16:35.754Z,24.65
2018-08-11T11:19:04.594Z,25.62
2018-08-11T11:21:33.504Z,24.43
2018-08-11T11:24:02.394Z,26.89
2018-08-11T11:26:31.287Z,27.59
2018-08-11T11:29:00.133Z,28.09
2018-08-11T11:31:28.967Z,29.05
2018-08-11T11:33:57.833Z,27.60
2018-08-11T11:36:26.642Z,25.67
2018-08-11T11:38:55.529Z,25.61
2018-08-11T11:41:24.362Z,26.45
2018-08-11T11:43:53.200Z,24.44
2018-08-11T11:46:22.095Z,24.44
2018-08-11T11:48:51.098Z,24.65
2018-08-11T11:51:20.187Z,25.58
2018-08-11T11:53:49.061Z,27.13
2018-08-11T11:56:17.984Z,26.93
2018-08-11T11:58:46.987Z,26.60
2018-08-11T12:01:15.861Z,26.95
2018-08-11T12:03:44.742Z,28.10
2018-08-11T12:06:13.629Z,26.71
2018-08-11T12:08:42.541Z,25.78
2018-08-11T12:11:11.401Z,26.54
2018-08-11T12:13:40.228Z,28.34
2018-08-11T12:16:09.074Z,27.33
2018-08-11T12:18:37.889Z,29.46
2018-08-11T12:21:06.799Z,29.30
2018-08-11T12:23:35.670Z,28.69
2018-08-11T12:26:04.549Z,28.47
2018-08-11T12:28:33.457Z,29.13
2018-08-11T12:31:02.402Z,30.10
2018-08-11T12:33:31.429Z,28.88
2018-08-11T12:36:00.294Z,30.33
2018-08-11T12:38:29.107Z,31.31
2018-08-11T12:40:57.986Z,30.64
2018-08-11T12:43:26.783Z,32.22
2018-08-11T12:45:55.748Z,33.09
2018-08-11T12:48:24.487Z,33.60
2018-08-11T12:50:53.355Z,32.88
2018-08-11T12:53:22.252Z,31.82
2018-08-11T12:56:09.031Z,31.48
2018-08-11T12:58:37.896Z,31.80
2018-08-11T13:01:06.755Z,31.70
2018-08-11T13:03:35.599Z,31.72
2018-08-11T13:06:04.508Z,31.62
2018-08-11T13:08:33.384Z,32.31
2018-08-11T13:11:02.250Z,33.23
2018-08-11T13:13:31.095Z,33.18
2018-08-11T13:15:59.977Z,31.56
2018-08-11T13:18:31.844Z,30.85
2018-08-11T13:21:00.725Z,30.39
2018-08-11T13:23:29.556Z,30.42
2018-08-11T13:25:58.456Z,30.82
2018-08-11T13:28:27.292Z,31.74
2018-08-11T13:30:56.126Z,32.36
2018-08-11T13:33:24.980Z,31.23
2018-08-11T13:35:53.798Z,32.30
2018-08-11T13:38:22.656Z,30.67
2018-08-11T13:40:51.742Z,32.02
2018-08-11T13:43:20.580Z,31.13
2018-08-11T13:45:49.412Z,30.87
2018-08-11T13:48:18.326Z,31.53
2018-08-11T13:50:47.187Z,31.26
2018-08-11T13:53:16.123Z,30.53
2018-08-11T13:55:45.006Z,31.32
2018-08-11T13:58:13.879Z,31.23
2018-08-11T14:00:42.685Z,32.00
2018-08-11T14:03:11.503Z,31.95
2018-08-11T14:05:40.356Z,32.63
2018-08-11T14:08:09.231Z,33.05
2018-08-11T14:10:38.066Z,31.71
2018-08-11T14:13:06.902Z,31.24
2018-08-11T14:15:35.739Z,32.20
2018-08-11T14:18:04.726Z,32.79
2018-08-11T14:20:33.588Z,30.83
2018-08-11T14:23:02.417Z,30.54
2018-08-11T14:25:31.310Z,30.42
2018-08-11T14:28:00.144Z,30.77
2018-08-11T14:30:28.983Z,31.10
2018-08-11T14:32:57.844Z,31.34
2018-08-11T14:35:26.704Z,31.65
2018-08-11T14:37:55.530Z,32.19
2018-08-11T14:40:24.358Z,32.79
2018-08-11T14:42:53.285Z,32.95
2018-08-11T14:45:22.471Z,33.16
2018-08-11T14:47:51.454Z,32.24
2018-08-11T14:50:20.311Z,31.53
2018-08-11T14:52:49.132Z,31.76
2018-08-11T14:55:18.024Z,32.09
2018-08-11T14:57:46.868Z,32.62
2018-08-11T15:00:15.689Z,32.56
2018-08-11T15:02:44.545Z,33.37
2018-08-11T15:05:13.381Z,33.35
2018-08-11T15:07:42.301Z,34.68
2018-08-11T15:10:11.138Z,33.15
2018-08-11T15:12:39.953Z,32.70
2018-08-11T15:15:10.073Z,32.89
2018-08-11T15:17:39.592Z,33.24
2018-08-11T15:20:09.179Z,33.67
2018-08-11T15:22:38.502Z,34.45
2018-08-11T15:25:08.093Z,33.92
2018-08-11T15:27:36.944Z,34.69
2018-08-11T15:30:07.687Z,33.82
2018-08-11T15:32:36.579Z,32.73
2018-08-11T15:35:05.690Z,32.99
2018-08-11T15:37:34.638Z,33.67
2018-08-11T15:40:03.793Z,34.25
2018-08-11T15:42:32.634Z,33.17
2018-08-11T15:45:01.465Z,33.68
2018-08-11T15:47:30.345Z,32.22
2018-08-11T15:49:59.278Z,33.19
2018-08-11T15:52:28.128Z,33.58
2018-08-11T15:54:56.973Z,34.19
2018-08-11T15:57:25.811Z,34.48
2018-08-11T15:59:54.698Z,34.02
2018-08-11T16:02:23.575Z,34.71
2018-08-11T16:04:52.428Z,34.99
2018-08-11T16:07:21.266Z,34.08
2018-08-11T16:09:50.134Z,34.04
2018-08-11T16:12:19.009Z,34.63
2018-08-11T16:14:47.934Z,34.27
2018-08-11T16:17:16.825Z,35.55
2018-08-11T16:19:45.695Z,35.35
2018-08-11T16:22:14.735Z,35.16
2018-08-11T16:24:43.689Z,35.27
2018-08-11T16:27:12.544Z,34.82
2018-08-11T16:29:41.397Z,34.95
2018-08-11T16:32:10.268Z,34.72
2018-08-11T16:34:39.145Z,34.70
2018-08-11T16:37:08.159Z,34.03
2018-08-11T16:39:37.028Z,35.11
2018-08-11T16:42:05.908Z,35.78
2018-08-11T16:44:34.748Z,36.04
2018-08-11T16:47:03.609Z,36.01
2018-08-11T16:49:32.428Z,37.63
2018-08-11T16:52:01.296Z,37.48
2018-08-11T16:54:30.145Z,36.84
2018-08-11T16:56:58.974Z,36.75
2018-08-11T16:59:27.867Z,37.53
2018-08-11T17:01:56.655Z,36.68
2018-08-11T17:04:25.533Z,36.53
2018-08-11T17:06:54.363Z,36.21
2018-08-11T17:09:23.221Z,36.36
2018-08-11T17:11:52.068Z,36.93
2018-08-11T17:14:20.958Z,36.04
2018-08-11T17:16:49.781Z,36.20
2018-08-11T17:19:18.621Z,35.79
2018-08-11T17:21:47.612Z,35.95
2018-08-11T17:24:16.452Z,36.40
2018-08-11T17:26:45.349Z,36.13
2018-08-11T17:29:14.187Z,36.10
2018-08-11T17:31:43.017Z,36.57
2018-08-11T17:34:11.888Z,36.12
2018-08-11T17:36:40.750Z,37.04
2018-08-11T17:39:10.977Z,37.36
2018-08-11T17:41:40.168Z,37.68
2018-08-11T17:44:09.028Z,37.87
2018-08-11T17:46:37.892Z,37.22
2018-08-11T17:49:06.733Z,37.62
2018-08-11T17:51:35.570Z,38.08
2018-08-11T17:54:04.412Z,37.63
2018-08-11T17:56:33.349Z,38.12
2018-08-11T17:59:02.299Z,38.44
2018-08-11T18:01:31.145Z,38.10
2018-08-11T18:04:01.599Z,37.93
2018-08-11T18:06:30.412Z,37.89
2018-08-11T18:08:59.292Z,38.43
2018-08-11T18:11:28.117Z,38.75
2018-08-11T18:13:56.969Z,38.81
2018-08-11T18:16:25.859Z,39.82
2018-08-11T18:18:54.717Z,39.48
2018-08-11T18:21:23.598Z,39.22
2018-08-11T18:23:52.442Z,39.34
2018-08-11T18:26:21.394Z,40.17
2018-08-11T18:28:50.269Z,40.63
2018-08-11T18:31:19.179Z,40.07
2018-08-11T18:33:47.959Z,40.27
2018-08-11T18:36:16.835Z,40.79
2018-08-11T18:38:45.692Z,40.53
2018-08-11T18:41:14.544Z,41.35
2018-08-11T18:43:43.391Z,41.23
2018-08-11T18:46:12.238Z,41.38
2018-08-11T18:48:42.523Z,42.28
2018-08-11T18:51:11.385Z,43.13
2018-08-11T18:53:40.232Z,43.85
2018-08-11T18:56:09.124Z,44.67
2018-08-11T18:58:38.022Z,44.92
2018-08-11T19:01:06.881Z,44.88
2018-08-11T19:03:35.736Z,44.82
2018-08-11T19:06:04.581Z,45.19
2018-08-11T19:08:33.423Z,46.30
2018-08-11T19:11:08.684Z,46.50
2018-08-11T19:13:37.564Z,47.07
2018-08-11T19:16:06.637Z,46.73
2018-08-11T19:18:35.512Z,47.31
2018-08-11T19:21:04.386Z,47.50
2018-08-11T19:23:33.199Z,48.31
2018-08-11T19:26:02.163Z,48.21
2018-08-11T19:28:30.882Z,48.31
2018-08-11T19:30:59.731Z,48.68
2018-08-11T19:34:26.825Z,50.08
2018-08-11T19:36:55.712Z,49.94
2018-08-11T19:39:24.547Z,50.61
2018-08-11T19:41:53.398Z,50.31
2018-08-11T19:44:22.287Z,50.91
2018-08-11T19:46:51.123Z,50.77
2018-08-11T19:49:19.972Z,50.84
2018-08-11T19:51:48.845Z,51.33
2018-08-11T19:54:17.833Z,51.71
2018-08-11T19:56:52.737Z,51.85
2018-08-11T19:59:21.580Z,51.89
2018-08-11T20:01:50.465Z,51.78
2018-08-11T20:04:19.367Z,51.54
2018-08-11T20:06:48.201Z,51.56
2018-08-11T20:09:17.055Z,51.65
2018-08-11T20:11:45.880Z,51.54
2018-08-11T20:14:14.831Z,51.99
2018-08-11T20:16:43.665Z,52.61
2018-08-11T20:22:44.704Z,53.61
2018-08-11T20:25:13.597Z,54.29
2018-08-11T20:27:42.421Z,55.08
2018-08-11T20:30:11.615Z,55.05
2018-08-11T20:32:40.450Z,54.30
2018-08-11T20:35:09.707Z,54.55
2018-08-11T20:37:38.551Z,54.72
2018-08-11T20:40:07.402Z,55.29
2018-08-11T20:42:36.271Z,55.20
2018-08-11T20:45:05.825Z,55.53
2018-08-11T20:47:34.743Z,55.66
2018-08-11T20:50:03.551Z,55.76
2018-08-11T20:52:32.520Z,55.96
2018-08-11T20:55:01.472Z,55.75
2018-08-11T20:57:30.436Z,56.54
2018-08-11T20:59:59.275Z,56.64
2018-08-11T21:02:28.199Z,56.89
2018-08-11T21:04:57.228Z,57.69
2018-08-11T21:07:26.048Z,58.13
2018-08-11T21:09:54.915Z,58.28
2018-08-11T21:12:23.791Z,58.32
2018-08-11T21:14:52.587Z,58.31
2018-08-11T21:17:21.472Z,58.40
2018-08-11T21:19:50.328Z,58.13
2018-08-11T21:22:19.178Z,58.56
2018-08-11T21:24:48.007Z,59.30
2018-08-11T21:27:18.369Z,59.21
2018-08-11T21:29:47.205Z,59.45
2018-08-11T21:32:16.046Z,58.94
2018-08-11T21:34:44.880Z,58.58
2018-08-11T21:37:13.733Z,58.55
2018-08-11T21:39:42.595Z,58.57
2018-08-11T21:42:11.429Z,58.99
2018-08-11T21:44:40.279Z,59.01
2018-08-11T21:47:09.104Z,59.20
2018-08-11T21:49:37.987Z,59.56
2018-08-11T21:52:06.849Z,59.54
2018-08-11T21:54:35.707Z,59.63
2018-08-11T21:57:04.530Z,59.56
2018-08-11T21:59:33.343Z,59.55
2018-08-11T22:02:02.206Z,59.14
2018-08-11T22:04:34.916Z,59.46
2018-08-11T22:07:07.607Z,59.41
2018-08-11T22:09:36.519Z,59.17
2018-08-11T22:12:05.278Z,59.91
2018-08-11T22:14:34.279Z,59.29
2018-08-11T22:17:02.983Z,60.48
2018-08-11T22:19:31.858Z,59.64
2018-08-11T22:22:00.683Z,59.94
2018-08-11T22:24:29.487Z,59.87
2018-08-11T22:26:58.366Z,60.14
2018-08-11T22:29:27.195Z,59.88
2018-08-11T22:31:58.925Z,60.07
2018-08-11T22:34:27.783Z,60.06
2018-08-11T22:36:56.636Z,60.35
2018-08-11T22:39:25.485Z,60.45
2018-08-11T22:41:54.308Z,60.45
2018-08-11T22:44:23.160Z,60.57
2018-08-11T22:46:51.979Z,60.75
2018-08-11T22:49:20.867Z,60.38
2018-08-11T22:51:49.690Z,61.04
2018-08-11T22:54:21.432Z,60.77
2018-08-11T22:56:50.299Z,61.35
2018-08-11T22:59:19.131Z,61.35
2018-08-11T23:01:47.974Z,61.84
2018-08-11T23:04:16.816Z,61.63
2018-08-11T23:06:45.635Z,61.21
2018-08-11T23:09:14.510Z,61.96
2018-08-11T23:11:43.346Z,61.53
2018-08-11T23:14:12.188Z,61.96
2018-08-11T23:16:41.137Z,62.00
2018-08-11T23:19:10.012Z,61.90
2018-08-11T23:21:38.848Z,62.08
2018-08-11T23:24:07.677Z,61.99
2018-08-11T23:26:36.556Z,61.99
2018-08-11T23:29:05.398Z,62.09
2018-08-11T23:31:34.244Z,61.81
2018-08-11T23:34:03.078Z,62.13
2018-08-11T23:36:31.925Z,62.64
2018-08-11T23:39:00.958Z,62.93
2018-08-11T23:41:29.809Z,62.68
2018-08-11T23:43:58.683Z,62.61
2018-08-11T23:46:27.563Z,62.91
2018-08-11T23:48:56.468Z,62.81
2018-08-11T23:51:25.390Z,62.33
2018-08-11T23:53:54.210Z,61.95
2018-08-11T23:56:23.103Z,61.79
2018-08-11T23:58:52.089Z,62.60
